createdAt,value
2024-01-20T00:00:16.548Z,-2.08
2024-01-20T00:03:05.234Z,-2.07
2024-01-20T00:05:33.768Z,-2.11
2024-01-20T00:08:02.428Z,-2.07
2024-01-20T00:10:30.996Z,-2.03
2024-01-20T00:12:59.473Z,-2.06
2024-01-20T00:15:27.904Z,-2.06
2024-01-20T00:17:56.741Z,-2.08
2024-01-20T00:20:25.288Z,-2.11
2024-01-20T00:22:53.728Z,-2.06
2024-01-20T00:25:22.526Z,-2.10
2024-01-20T00:27:51.050Z,-2.13
2024-01-20T00:30:24.429Z,-2.11
2024-01-20T00:32:53.122Z,-2.12
2024-01-20T00:35:22.262Z,-2.11
2024-01-20T00:37:50.929Z,-2.15
2024-01-20T00:40:19.327Z,-2.15
2024-01-20T00:42:47.846Z,-2.19
2024-01-20T00:45:16.653Z,-2.20
2024-01-20T00:47:45.932Z,-2.16
2024-01-20T00:50:14.415Z,-2.17
2024-01-20T00:52:42.911Z,-2.19
2024-01-20T00:55:11.716Z,-2.19
2024-01-20T00:57:40.125Z,-2.16
2024-01-20T01:00:10.808Z,-2.20
2024-01-20T01:02:41.342Z,-2.17
2024-01-20T01:05:10.449Z,-2.16
2024-01-20T01:07:39.555Z,-2.18
2024-01-20T01:10:08.518Z,-2.15
2024-01-20T01:12:37.147Z,-2.17
2024-01-20T01:15:06.541Z,-2.16
2024-01-20T01:17:35.128Z,-2.19
2024-01-20T01:20:04.401Z,-2.21
2024-01-20T01:22:32.941Z,-2.21
2024-01-20T01:25:01.412Z,-2.20
2024-01-20T01:27:30.355Z,-2.19
2024-01-20T01:29:58.773Z,-2.22
2024-01-20T01:32:27.387Z,-2.23
2024-01-20T01:34:55.864Z,-2.23
2024-01-20T01:37:24.241Z,-2.20
2024-01-20T01:39:52.819Z,-2.23
2024-01-20T01:42:21.222Z,-2.27
2024-01-20T01:44:49.788Z,-2.27
2024-01-20T01:47:18.497Z,-2.27
2024-01-20T01:49:46.980Z,-2.25
2024-01-20T01:52:16.430Z,-2.24
2024-01-20T01:54:45.306Z,-2.29
2024-01-20T01:57:15.505Z,-2.30
2024-01-20T01:59:45.646Z,-2.33
2024-01-20T02:02:14.022Z,-2.32
2024-01-20T02:04:42.493Z,-2.37
2024-01-20T02:07:11.389Z,-2.30
2024-01-20T02:09:39.890Z,-2.32
2024-01-20T02:12:09.284Z,-2.39
2024-01-20T02:14:38.184Z,-2.38
2024-01-20T02:17:07.841Z,-2.40
2024-01-20T02:19:41.509Z,-2.40
2024-01-20T02:22:15.973Z,-2.40
2024-01-20T02:24:48.841Z,-2.41
2024-01-20T02:27:18.800Z,-2.45
2024-01-20T02:29:47.136Z,-2.47
2024-01-20T02:32:15.770Z,-2.48
2024-01-20T02:34:44.329Z,-2.51
2024-01-20T02:37:13.215Z,-2.54
2024-01-20T02:39:41.655Z,-2.60
2024-01-20T02:42:10.986Z,-2.61
2024-01-20T02:44:39.878Z,-2.60
2024-01-20T02:47:08.324Z,-2.62
2024-01-20T02:49:36.914Z,-2.67
2024-01-20T02:52:05.748Z,-2.68
2024-01-20T02:54:34.410Z,-2.67
2024-01-20T02:57:03.779Z,-2.69
2024-01-20T02:59:32.282Z,-2.67
2024-01-20T03:02:03.612Z,-2.67
2024-01-20T03:04:32.333Z,-2.69
2024-01-20T03:07:00.810Z,-2.70
2024-01-20T03:09:29.627Z,-2.68
2024-01-20T03:11:58.129Z,-2.66
2024-01-20T03:14:26.478Z,-2.67
2024-01-20T03:16:54.884Z,-2.71
2024-01-20T03:19:23.298Z,-2.69
2024-01-20T03:21:51.798Z,-2.67
2024-01-20T03:24:20.980Z,-2.68
2024-01-20T03:26:50.503Z,-2.69
2024-01-20T03:29:19.326Z,-2.73
2024-01-20T03:31:47.800Z,-2.76
2024-01-20T03:34:16.468Z,-2.74
2024-01-20T03:36:44.908Z,-2.72
2024-01-20T03:39:13.629Z,-2.70
2024-01-20T03:41:42.479Z,-2.71
2024-01-20T03:44:10.922Z,-2.73
2024-01-20T03:46:39.305Z,-2.72
2024-01-20T03:49:08.070Z,-2.72
2024-01-20T03:51:36.594Z,-2.73
2024-01-20T03:54:05.765Z,-2.74
2024-01-20T03:56:34.289Z,-2.77
2024-01-20T03:59:02.694Z,-2.76
2024-01-20T04:01:31.017Z,-2.69
2024-01-20T04:03:59.583Z,-2.74
2024-01-20T04:06:28.144Z,-2.67
2024-01-20T04:08:56.545Z,-2.70
2024-01-20T04:11:24.997Z,-2.68
2024-01-20T04:13:53.522Z,-2.71
2024-01-20T04:16:22.224Z,-2.77
2024-01-20T04:18:50.838Z,-2.75
2024-01-20T04:21:19.335Z,-2.72
2024-01-20T04:23:47.718Z,-2.67
2024-01-20T04:26:16.896Z,-2.69
2024-01-20T04:28:45.301Z,-2.67
2024-01-20T04:31:13.716Z,-2.66
2024-01-20T04:33:42.258Z,-2.61
2024-01-20T04:36:10.891Z,-2.60
2024-01-20T04:38:41.126Z,-2.69
2024-01-20T04:41:09.555Z,-2.72
2024-01-20T04:43:37.951Z,-2.75
2024-01-20T04:46:08.429Z,-2.71
2024-01-20T04:48:36.989Z,-2.74
2024-01-20T04:51:05.900Z,-2.74
2024-01-20T04:53:35.839Z,-2.69
2024-01-20T04:56:07.578Z,-2.68
2024-01-20T04:58:37.987Z,-2.64
2024-01-20T05:01:06.811Z,-2.65
2024-01-20T05:03:35.309Z,-2.63
2024-01-20T05:06:04.230Z,-2.63
2024-01-20T05:08:32.910Z,-2.69
2024-01-20T05:11:01.353Z,-2.64
2024-01-20T05:13:29.762Z,-2.71
2024-01-20T05:15:58.149Z,-2.68
2024-01-20T05:18:26.918Z,-2.67
2024-01-20T05:20:55.566Z,-2.67
2024-01-20T05:23:23.943Z,-2.66
2024-01-20T05:25:52.849Z,-2.67
2024-01-20T05:28:21.248Z,-2.63
2024-01-20T05:30:49.657Z,-2.62
2024-01-20T05:33:18.230Z,-2.58
2024-01-20T05:35:46.712Z,-2.57
2024-01-20T05:38:15.378Z,-2.58
2024-01-20T05:40:43.858Z,-2.55
2024-01-20T05:43:12.410Z,-2.51
2024-01-20T05:45:40.886Z,-2.49
2024-01-20T05:48:09.738Z,-2.48
2024-01-20T05:50:38.235Z,-2.47
2024-01-20T05:53:06.560Z,-2.45
2024-01-20T05:55:37.085Z,-2.46
2024-01-20T05:58:05.413Z,-2.47
2024-01-20T06:00:33.843Z,-2.47
2024-01-20T06:03:02.558Z,-2.43
2024-01-20T06:05:30.962Z,-2.40
2024-01-20T06:07:59.475Z,-2.36
2024-01-20T06:10:28.076Z,-2.30
2024-01-20T06:12:56.480Z,-2.33
2024-01-20T06:15:24.848Z,-2.37
2024-01-20T06:17:53.414Z,-2.36
2024-01-20T06:20:22.083Z,-2.37
2024-01-20T06:22:50.524Z,-2.38
2024-01-20T06:25:19.715Z,-2.38
2024-01-20T06:27:48.137Z,-2.37
2024-01-20T06:30:16.770Z,-2.43
2024-01-20T06:32:45.218Z,-2.43
2024-01-20T06:35:13.861Z,-2.42
2024-01-20T06:37:42.232Z,-2.40
2024-01-20T06:40:11.208Z,-2.39
2024-01-20T06:45:25.500Z,-2.39
2024-01-20T06:47:54.135Z,-2.38
2024-01-20T06:50:22.670Z,-2.31
2024-01-20T06:52:51.188Z,-2.29
2024-01-20T06:55:19.565Z,-2.31
2024-01-20T06:57:47.922Z,-2.24
2024-01-20T07:00:16.710Z,-2.25
2024-01-20T07:02:45.054Z,-2.26
2024-01-20T07:05:13.376Z,-2.22
2024-01-20T07:07:42.663Z,-2.13
2024-01-20T07:10:11.622Z,-2.13
2024-01-20T07:12:40.540Z,-2.11
2024-01-20T07:15:10.420Z,-2.11
2024-01-20T07:17:39.597Z,-2.17
2024-01-20T07:20:09.142Z,-2.16
2024-01-20T07:22:38.648Z,-2.04
2024-01-20T07:25:08.405Z,-2.03
2024-01-20T07:27:37.219Z,-2.08
2024-01-20T07:30:06.922Z,-2.05
2024-01-20T07:32:35.878Z,-2.09
2024-01-20T07:35:05.598Z,-2.04
2024-01-20T07:37:37.923Z,-2.04
2024-01-20T07:40:07.285Z,-2.03
2024-01-20T07:42:36.151Z,-1.98
2024-01-20T07:45:05.637Z,-1.94
2024-01-20T07:47:34.112Z,-2.08
2024-01-20T07:50:02.611Z,-2.03
2024-01-20T07:52:30.991Z,-1.84
2024-01-20T07:54:59.452Z,-1.73
2024-01-20T07:57:27.966Z,-1.78
2024-01-20T07:59:56.477Z,-1.68
2024-01-20T08:02:25.064Z,-1.67
2024-01-20T08:04:53.479Z,-1.77
2024-01-20T08:07:22.578Z,-1.94
2024-01-20T08:09:51.108Z,-1.88
2024-01-20T08:12:19.493Z,-1.74
2024-01-20T08:14:48.133Z,-1.54
2024-01-20T08:17:16.455Z,-1.46
2024-01-20T08:19:46.843Z,-1.37
2024-01-20T08:22:16.990Z,-1.54
2024-01-20T08:24:45.385Z,-1.52
2024-01-20T08:27:13.998Z,-1.54
2024-01-20T08:29:43.875Z,-1.40
2024-01-20T08:32:12.349Z,-1.43
2024-01-20T08:34:40.790Z,-1.57
2024-01-20T08:37:09.357Z,-1.49
2024-01-20T08:39:37.795Z,-1.55
2024-01-20T08:42:08.357Z,-1.42
2024-01-20T08:44:36.985Z,-1.29
2024-01-20T08:47:05.380Z,-1.31
2024-01-20T08:49:34.019Z,-1.19
2024-01-20T08:52:02.506Z,-1.33
2024-01-20T08:54:30.886Z,-1.52
2024-01-20T08:56:59.395Z,-1.63
2024-01-20T08:59:27.859Z,-1.72
2024-01-20T09:01:56.292Z,-1.70
2024-01-20T09:04:24.660Z,-1.44
2024-01-20T09:06:53.309Z,-1.38
2024-01-20T09:09:23.141Z,-1.25
2024-01-20T09:11:51.558Z,-1.24
2024-01-20T09:14:20.154Z,-1.29
2024-01-20T09:16:49.057Z,-1.11
2024-01-20T09:19:17.715Z,-1.08
2024-01-20T09:21:46.753Z,-0.91
2024-01-20T09:24:15.185Z,-0.98
2024-01-20T09:26:43.654Z,-1.18
2024-01-20T09:29:12.254Z,-1.09
2024-01-20T09:31:40.593Z,-1.11
2024-01-20T09:34:09.468Z,-1.08
2024-01-20T09:36:38.068Z,-1.12
2024-01-20T09:39:06.522Z,-1.17
2024-01-20T09:41:35.019Z,-0.98
2024-01-20T09:44:04.181Z,-0.81
2024-01-20T09:46:32.544Z,-0.70
2024-01-20T09:49:02.042Z,-0.75
2024-01-20T09:51:32.830Z,-0.85
2024-01-20T09:54:02.216Z,-0.82
2024-01-20T09:56:30.870Z,-0.79
2024-01-20T09:59:04.282Z,-0.92
2024-01-20T10:01:33.309Z,-0.88
2024-01-20T10:04:05.551Z,-0.75
2024-01-20T10:06:34.093Z,-0.74
2024-01-20T10:09:03.221Z,-0.60
2024-01-20T10:11:31.690Z,-0.59
2024-01-20T10:14:00.268Z,-0.49
2024-01-20T10:16:41.175Z,-0.43
2024-01-20T10:19:09.659Z,-0.60
2024-01-20T10:21:42.200Z,-0.69
2024-01-20T10:24:10.755Z,-0.79
2024-01-20T10:26:45.613Z,-0.87
2024-01-20T10:29:14.013Z,-0.83
2024-01-20T10:31:42.471Z,-1.07
2024-01-20T10:34:11.626Z,-0.96
2024-01-20T10:36:43.012Z,-0.97
2024-01-20T10:39:16.402Z,-0.80
2024-01-20T10:41:52.825Z,-0.70
2024-01-20T10:44:25.927Z,-0.64
2024-01-20T10:46:56.371Z,-0.45
2024-01-20T10:49:24.974Z,-0.32
2024-01-20T10:51:58.091Z,-0.22
2024-01-20T10:54:28.213Z,-0.04
2024-01-20T10:56:57.195Z,0.07
2024-01-20T10:59:28.275Z,-0.12
2024-01-20T11:01:57.049Z,-0.04
2024-01-20T11:04:25.607Z,0.15
2024-01-20T11:06:55.529Z,0.14
2024-01-20T11:09:24.217Z,0.10
2024-01-20T11:12:04.873Z,-0.06
2024-01-20T11:14:33.977Z,-0.07
2024-01-20T11:17:14.017Z,-0.02
2024-01-20T11:19:42.877Z,0.09
2024-01-20T11:22:40.266Z,-0.11
2024-01-20T11:25:09.453Z,-0.05
2024-01-20T11:27:55.636Z,0.04
2024-01-20T11:30:35.814Z,-0.18
2024-01-20T11:33:06.393Z,-0.28
2024-01-20T11:35:38.162Z,-0.34
2024-01-20T11:38:08.768Z,-0.31
2024-01-20T11:40:37.152Z,-0.26
2024-01-20T11:43:10.619Z,-0.37
2024-01-20T11:45:40.624Z,-0.27
2024-01-20T11:48:14.962Z,-0.35
2024-01-20T11:50:44.959Z,-0.40
2024-01-20T11:53:13.812Z,-0.52
2024-01-20T11:55:53.649Z,-0.50
2024-01-20T11:58:22.613Z,-0.34
2024-01-20T12:00:55.426Z,-0.22
2024-01-20T12:03:24.377Z,-0.15
2024-01-20T12:05:53.378Z,-0.05
2024-01-20T12:08:23.747Z,0.10
2024-01-20T12:10:52.546Z,0.37
2024-01-20T12:13:21.652Z,1.07
2024-01-20T12:15:51.034Z,1.76
2024-01-20T12:18:19.698Z,2.34
2024-01-20T12:20:48.589Z,2.66
2024-01-20T12:23:23.173Z,3.00
2024-01-20T12:25:54.755Z,3.49
2024-01-20T12:28:23.475Z,3.96
2024-01-20T12:30:52.028Z,3.68
2024-01-20T12:33:20.520Z,4.05
2024-01-20T12:35:49.052Z,4.60
2024-01-20T12:38:17.516Z,4.70
2024-01-20T12:40:46.001Z,4.50
2024-01-20T12:43:14.537Z,4.73
2024-01-20T12:45:42.976Z,4.99
2024-01-20T12:48:11.506Z,4.65
2024-01-20T12:50:40.053Z,5.35
2024-01-20T12:53:08.484Z,5.92
2024-01-20T12:55:37.037Z,5.94
2024-01-20T12:58:05.513Z,6.18
2024-01-20T13:00:34.157Z,5.73
2024-01-20T13:03:02.914Z,6.28
2024-01-20T13:05:31.758Z,5.85
2024-01-20T13:08:00.222Z,6.24
2024-01-20T13:10:28.656Z,6.91
2024-01-20T13:12:57.038Z,7.00
2024-01-20T13:15:27.480Z,7.30
2024-01-20T13:17:56.438Z,7.75
2024-01-20T13:20:25.160Z,7.76
2024-01-20T13:22:53.540Z,7.89
2024-01-20T13:25:21.947Z,8.01
2024-01-20T13:27:50.610Z,8.18
2024-01-20T13:30:19.222Z,7.98
2024-01-20T13:32:47.712Z,6.93
2024-01-20T13:35:16.430Z,7.56
2024-01-20T13:37:45.024Z,7.95
2024-01-20T13:40:14.070Z,8.25
2024-01-20T13:42:43.854Z,8.06
2024-01-20T13:45:13.131Z,8.13
2024-01-20T13:47:41.522Z,8.45
2024-01-20T13:50:11.619Z,8.32
2024-01-20T13:52:40.398Z,8.61
2024-01-20T13:55:10.477Z,8.43
2024-01-20T13:57:38.974Z,8.15
2024-01-20T14:00:08.630Z,8.23
2024-01-20T14:02:37.045Z,8.31
2024-01-20T14:05:06.481Z,8.40
2024-01-20T14:07:37.408Z,8.53
2024-01-20T14:10:07.482Z,8.53
2024-01-20T14:12:35.976Z,8.41
2024-01-20T14:15:05.500Z,8.43
2024-01-20T14:17:34.303Z,8.64
2024-01-20T14:20:03.501Z,8.55
2024-01-20T14:22:31.944Z,8.03
2024-01-20T14:25:05.538Z,7.10
2024-01-20T14:27:35.624Z,5.88
2024-01-20T14:30:07.622Z,4.48
2024-01-20T14:32:36.120Z,3.26
2024-01-20T14:35:04.960Z,2.36
2024-01-20T14:37:33.514Z,1.53
2024-01-20T14:40:02.299Z,0.60
2024-01-20T14:42:30.745Z,-0.13
2024-01-20T14:44:59.326Z,-0.75
2024-01-20T14:47:27.801Z,-1.28
2024-01-20T14:49:57.078Z,-1.94
2024-01-20T14:52:25.610Z,-2.52
2024-01-20T14:54:54.016Z,-2.98
2024-01-20T14:57:22.463Z,-3.02
2024-01-20T14:59:53.200Z,-3.33
2024-01-20T15:02:21.650Z,-3.78
2024-01-20T15:04:50.097Z,-4.26
2024-01-20T15:07:18.518Z,-4.70
2024-01-20T15:09:46.910Z,-5.07
2024-01-20T15:12:15.461Z,-5.36
2024-01-20T15:14:46.602Z,-5.51
2024-01-20T15:17:15.227Z,-5.70
2024-01-20T15:19:43.854Z,-5.88
2024-01-20T15:22:13.079Z,-6.00
2024-01-20T15:24:41.562Z,-6.13
2024-01-20T15:27:10.045Z,-6.31
2024-01-20T15:29:38.578Z,-6.49
2024-01-20T15:32:07.347Z,-6.62
2024-01-20T15:34:36.074Z,-6.68
2024-01-20T15:37:04.931Z,-6.68
2024-01-20T15:39:33.496Z,-6.64
2024-01-20T15:42:01.976Z,-6.66
2024-01-20T15:44:30.504Z,-6.78
2024-01-20T15:46:58.939Z,-6.88
2024-01-20T15:49:27.492Z,-6.96
2024-01-20T15:51:56.036Z,-7.09
2024-01-20T15:54:24.407Z,-7.19
2024-01-20T15:56:52.858Z,-7.30
2024-01-20T15:59:24.659Z,-7.41
2024-01-20T16:01:53.393Z,-7.46
2024-01-20T16:04:21.885Z,-7.51
2024-01-20T16:06:50.524Z,-7.54
2024-01-20T16:09:20.412Z,-7.60
2024-01-20T16:11:53.096Z,-7.69
2024-01-20T16:14:24.014Z,-7.72
2024-01-20T16:16:52.634Z,-7.70
2024-01-20T16:19:21.431Z,-7.60
2024-01-20T16:21:52.591Z,-7.56
2024-01-20T16:24:22.146Z,-7.55
2024-01-20T16:26:50.571Z,-7.43
2024-01-20T16:29:20.797Z,-7.43
2024-01-20T16:31:49.418Z,-7.52
2024-01-20T16:34:18.077Z,-7.58
2024-01-20T16:36:49.266Z,-7.64
2024-01-20T16:39:18.742Z,-7.74
2024-01-20T16:41:47.286Z,-7.77
2024-01-20T16:44:15.833Z,-7.77
2024-01-20T16:46:53.785Z,-7.71
2024-01-20T16:49:22.550Z,-7.66
2024-01-20T16:51:51.255Z,-7.74
2024-01-20T16:54:19.703Z,-7.85
2024-01-20T16:56:48.116Z,-7.94
2024-01-20T16:59:16.445Z,-8.04
2024-01-20T17:01:44.894Z,-8.16
2024-01-20T17:04:13.526Z,-8.23
2024-01-20T17:06:42.222Z,-8.17
2024-01-20T17:09:10.873Z,-8.09
2024-01-20T17:11:39.254Z,-8.06
2024-01-20T17:14:07.709Z,-8.12
2024-01-20T17:16:37.257Z,-8.18
2024-01-20T17:19:05.754Z,-8.27
2024-01-20T17:21:34.708Z,-8.35
2024-01-20T17:24:03.785Z,-8.45
2024-01-20T17:26:32.741Z,-8.54
2024-01-20T17:29:01.799Z,-8.54
2024-01-20T17:31:38.299Z,-8.51
2024-01-20T17:34:06.958Z,-8.52
2024-01-20T17:36:35.532Z,-8.39
2024-01-20T17:39:05.590Z,-8.23
2024-01-20T17:41:34.065Z,-8.16
2024-01-20T17:44:02.456Z,-8.07
2024-01-20T17:46:30.921Z,-7.96
2024-01-20T17:48:59.381Z,-7.89
2024-01-20T17:51:27.961Z,-7.86
2024-01-20T17:53:56.481Z,-7.85
2024-01-20T17:56:24.970Z,-7.89
2024-01-20T17:58:54.765Z,-7.93
2024-01-20T18:01:23.305Z,-7.96
2024-01-20T18:03:52.324Z,-7.98
2024-01-20T18:06:20.937Z,-7.95
2024-01-20T18:08:49.895Z,-7.88
2024-01-20T18:11:18.421Z,-7.86
2024-01-20T18:13:46.830Z,-7.81
2024-01-20T18:16:15.351Z,-7.76
2024-01-20T18:18:44.493Z,-7.70
2024-01-20T18:21:14.130Z,-7.65
2024-01-20T18:23:42.722Z,-7.60
2024-01-20T18:26:11.113Z,-7.54
2024-01-20T18:28:39.526Z,-7.52
2024-01-20T18:31:08.918Z,-7.56
2024-01-20T18:33:38.770Z,-7.61
2024-01-20T18:36:08.317Z,-7.66
2024-01-20T18:38:36.973Z,-7.70
2024-01-20T18:41:05.556Z,-7.75
2024-01-20T18:43:34.026Z,-7.80
2024-01-20T18:46:02.520Z,-7.82
2024-01-20T18:48:30.976Z,-7.86
2024-01-20T18:50:59.480Z,-7.88
2024-01-20T18:53:27.914Z,-7.92
2024-01-20T18:55:56.388Z,-8.00
2024-01-20T18:58:25.650Z,-8.04
2024-01-20T19:00:54.245Z,-8.05
2024-01-20T19:03:22.714Z,-8.04
2024-01-20T19:05:51.604Z,-8.03
2024-01-20T19:08:21.672Z,-8.01
2024-01-20T19:10:50.081Z,-7.99
2024-01-20T19:13:20.289Z,-8.02
2024-01-20T19:15:49.229Z,-8.07
2024-01-20T19:18:17.894Z,-8.12
2024-01-20T19:20:47.530Z,-8.17
2024-01-20T19:23:17.306Z,-8.21
2024-01-20T19:25:45.774Z,-8.27
2024-01-20T19:28:14.300Z,-8.29
2024-01-20T19:30:43.039Z,-8.29
2024-01-20T19:33:11.662Z,-8.28
2024-01-20T19:35:40.143Z,-8.29
2024-01-20T19:38:08.540Z,-8.35
2024-01-20T19:40:36.998Z,-8.39
2024-01-20T19:43:05.362Z,-8.41
2024-01-20T19:45:33.961Z,-8.39
2024-01-20T19:48:02.575Z,-8.37
2024-01-20T19:50:30.968Z,-8.34
2024-01-20T19:53:00.656Z,-8.31
2024-01-20T19:55:29.170Z,-8.26
2024-01-20T19:57:57.676Z,-8.20
2024-01-20T20:00:27.391Z,-8.21
2024-01-20T20:03:00.259Z,-8.25
2024-01-20T20:05:29.053Z,-8.27
2024-01-20T20:07:57.456Z,-8.27
2024-01-20T20:10:30.370Z,-8.35
2024-01-20T20:12:59.005Z,-8.37
2024-01-20T20:15:27.548Z,-8.39
2024-01-20T20:17:57.294Z,-8.37
2024-01-20T20:20:26.190Z,-8.38
2024-01-20T20:22:54.638Z,-8.40
2024-01-20T20:25:23.006Z,-8.41
2024-01-20T20:27:51.445Z,-8.41
2024-01-20T20:30:20.100Z,-8.44
2024-01-20T20:32:48.632Z,-8.43
2024-01-20T20:35:18.843Z,-8.40
2024-01-20T20:37:47.638Z,-8.36
2024-01-20T20:40:16.195Z,-8.36
2024-01-20T20:42:44.838Z,-8.35
2024-01-20T20:45:13.381Z,-8.32
2024-01-20T20:47:41.874Z,-8.33
2024-01-20T20:50:13.863Z,-8.32
2024-01-20T20:52:44.387Z,-8.34
2024-01-20T20:55:14.635Z,-8.36
2024-01-20T20:57:43.115Z,-8.34
2024-01-20T21:00:16.526Z,-8.33
2024-01-20T21:02:45.978Z,-8.35
2024-01-20T21:05:18.238Z,-8.36
2024-01-20T21:07:47.799Z,-8.37
2024-01-20T21:10:18.597Z,-8.39
2024-01-20T21:12:48.272Z,-8.41
2024-01-20T21:15:17.137Z,-8.47
2024-01-20T21:17:45.984Z,-8.49
2024-01-20T21:20:14.831Z,-8.52
2024-01-20T21:22:43.262Z,-8.65
2024-01-20T21:25:11.860Z,-8.69
2024-01-20T21:27:40.656Z,-8.69
2024-01-20T21:30:10.013Z,-8.66
2024-01-20T21:32:38.524Z,-8.60
2024-01-20T21:35:07.371Z,-8.57
2024-01-20T21:37:35.956Z,-8.59
2024-01-20T21:40:06.132Z,-8.61
2024-01-20T21:42:34.637Z,-8.63
2024-01-20T21:45:06.790Z,-8.69
2024-01-20T21:47:35.275Z,-8.69
2024-01-20T21:50:04.183Z,-8.69
2024-01-20T21:52:32.595Z,-8.64
2024-01-20T21:55:02.985Z,-8.58
2024-01-20T21:57:31.738Z,-8.53
2024-01-20T22:00:00.193Z,-8.55
2024-01-20T22:02:28.899Z,-8.60
2024-01-20T22:04:57.332Z,-8.60
2024-01-20T22:07:25.960Z,-8.62
2024-01-20T22:09:54.405Z,-8.58
2024-01-20T22:12:25.445Z,-8.57
2024-01-20T22:14:53.856Z,-8.61
2024-01-20T22:17:22.648Z,-8.64
2024-01-20T22:19:51.107Z,-8.67
2024-01-20T22:22:20.185Z,-8.70
2024-01-20T22:24:48.767Z,-8.73
2024-01-20T22:27:17.296Z,-8.70
2024-01-20T22:29:45.689Z,-8.68
2024-01-20T22:32:14.196Z,-8.65
2024-01-20T22:34:42.663Z,-8.65
2024-01-20T22:37:11.189Z,-8.61
2024-01-20T22:39:39.621Z,-8.64
2024-01-20T22:42:08.078Z,-8.67
2024-01-20T22:44:36.472Z,-8.68
2024-01-20T22:47:05.423Z,-8.67
2024-01-20T22:49:34.720Z,-8.63
2024-01-20T22:52:03.213Z,-8.61
2024-01-20T22:54:34.667Z,-8.65
2024-01-20T22:57:05.963Z,-8.68
2024-01-20T22:59:34.468Z,-8.73
2024-01-20T23:02:02.979Z,-8.76
2024-01-20T23:04:31.779Z,-8.80
2024-01-20T23:07:00.298Z,-8.86
2024-01-20T23:09:28.991Z,-8.93
2024-01-20T23:11:57.495Z,-8.97
2024-01-20T23:14:25.884Z,-9.00
2024-01-20T23:16:54.266Z,-9.05
2024-01-20T23:19:23.122Z,-9.08
2024-01-20T23:21:51.684Z,-9.12
2024-01-20T23:24:20.463Z,-9.18
2024-01-20T23:26:49.656Z,-9.21
2024-01-20T23:29:18.573Z,-9.28
2024-01-20T23:31:47.180Z,-9.32
2024-01-20T23:34:15.705Z,-9.34
2024-01-20T23:36:44.286Z,-9.36
2024-01-20T23:39:13.515Z,-9.39
2024-01-20T23:41:42.177Z,-9.41
2024-01-20T23:44:11.452Z,-9.42
2024-01-20T23:46:40.055Z,-9.38
2024-01-20T23:49:08.930Z,-9.40
2024-01-20T23:51:37.939Z,-9.43
2024-01-20T23:54:07.065Z,-9.45
2024-01-20T23:56:35.444Z,-9.46
2024-01-20T23:59:04.165Z,-9.44
